Time;durP1;ratioP1;P1;durP2;ratioP2;P2;SDS_P1;SDS_P2;PMS_P1;PMS_P2;Temp;Humidity;BMP_temperature;BMP_pressure;BME280_temperature;BME280_humidity;BME280_pressure;Samples;Min_cycle;Max_cycle;Signal;HPM_P1;HPM_P2
2021/11/30 00:00:40;;;;;;;16.40;10.88;;;;;;;0.67;100.00;97368.44;2132389;83;21049;-82
2021/11/30 00:03:43;;;;;;;17.65;11.15;;;;;;;0.67;100.00;97378.75;2132120;83;21029;-82
2021/11/30 00:06:43;;;;;;;22.15;11.75;;;;;;;0.66;100.00;97377.13;2132285;83;21028;-82
2021/11/30 00:12:45;;;;;;;19.45;11.35;;;;;;;0.65;100.00;97375.52;2132890;83;21076;-81
2021/11/30 00:15:46;;;;;;;15.18;10.78;;;;;;;0.67;100.00;97389.05;2132384;83;21016;-82
2021/11/30 00:18:47;;;;;;;14.13;9.18;;;;;;;0.67;100.00;97383.41;2132331;83;21048;-82
2021/11/30 00:21:48;;;;;;;13.38;9.13;;;;;;;0.68;100.00;97377.78;2132327;83;21025;-82
2021/11/30 00:24:49;;;;;;;18.80;11.03;;;;;;;0.68;100.00;97388.89;2132209;83;21473;-83
2021/11/30 00:27:50;;;;;;;12.40;9.88;;;;;;;0.64;100.00;97394.48;2132138;83;21088;-82
2021/11/30 00:30:51;;;;;;;17.48;10.90;;;;;;;0.70;100.00;97399.05;2132433;83;20990;-82
2021/11/30 00:33:52;;;;;;;14.20;8.35;;;;;;;0.72;100.00;97401.80;2132348;83;21057;-82
2021/11/30 00:36:52;;;;;;;20.32;12.13;;;;;;;0.71;100.00;97406.62;2132394;83;21001;-82
2021/11/30 00:39:53;;;;;;;14.20;10.05;;;;;;;0.74;100.00;97405.53;2132223;83;21052;-81
2021/11/30 00:42:56;;;;;;;17.77;11.35;;;;;;;0.77;100.00;97420.20;2132499;83;21504;-81
2021/11/30 00:46:07;;;;;;;16.37;10.50;;;;;;;0.79;100.00;97419.57;2132453;83;21505;-82
2021/11/30 00:49:03;;;;;;;15.70;10.90;;;;;;;0.82;100.00;97420.58;2131208;83;21033;-81
2021/11/30 00:52:04;;;;;;;18.50;11.33;;;;;;;0.85;100.00;97432.34;2132254;83;21036;-81
2021/11/30 00:55:05;;;;;;;16.52;10.55;;;;;;;0.87;100.00;97433.48;2132387;83;21001;-82
2021/11/30 00:58:06;;;;;;;16.12;10.43;;;;;;;0.84;100.00;97432.02;2132535;83;21029;-81
2021/11/30 01:01:07;;;;;;;14.83;10.18;;;;;;;0.87;100.00;97439.45;2132376;83;20974;-82
2021/11/30 01:04:09;;;;;;;17.15;11.00;;;;;;;0.88;100.00;97436.39;2132471;83;21016;-81
2021/11/30 01:07:11;;;;;;;16.35;11.57;;;;;;;0.91;100.00;97444.62;2132573;83;21552;-82
2021/11/30 01:10:12;;;;;;;16.32;11.22;;;;;;;0.90;100.00;97448.16;2124392;82;21400;-82
2021/11/30 01:13:14;;;;;;;12.98;10.28;;;;;;;0.90;100.00;97448.64;2094870;85;21139;-82
2021/11/30 01:16:15;;;;;;;18.37;12.00;;;;;;;0.90;100.00;97444.77;2094690;85;21052;-82
2021/11/30 01:19:16;;;;;;;18.32;12.00;;;;;;;0.90;100.00;97451.22;2094462;85;21028;-82
2021/11/30 01:22:18;;;;;;;14.87;10.43;;;;;;;0.91;100.00;97449.77;2094597;84;21143;-82
2021/11/30 01:25:19;;;;;;;14.35;10.23;;;;;;;0.93;100.00;97446.59;2094859;85;20981;-82
2021/11/30 01:28:20;;;;;;;14.95;10.45;;;;;;;0.96;100.00;97459.66;2094935;85;21004;-81
2021/11/30 01:31:21;;;;;;;13.80;10.03;;;;;;;0.98;100.00;97450.80;2095078;85;21417;-81
2021/11/30 01:34:21;;;;;;;15.03;10.70;;;;;;;1.03;100.00;97464.06;2094777;85;21079;-83
2021/11/30 01:37:22;;;;;;;13.28;9.85;;;;;;;0.98;100.00;97470.13;2094777;85;20996;-82
2021/11/30 01:40:24;;;;;;;17.40;11.15;;;;;;;0.99;100.00;97464.50;2094789;85;21020;-82
2021/11/30 01:43:27;;;;;;;16.95;11.65;;;;;;;0.97;100.00;97463.84;2094830;85;20973;-82
2021/11/30 01:46:29;;;;;;;15.80;9.68;;;;;;;0.99;100.00;97467.88;2094790;85;21072;-83
2021/11/30 01:49:39;;;;;;;13.30;10.03;;;;;;;1.00;100.00;97464.34;2094777;85;21064;-82
2021/11/30 01:52:32;;;;;;;14.50;9.73;;;;;;;0.98;100.00;97473.19;2094379;85;21041;-83
2021/11/30 01:55:33;;;;;;;15.58;9.80;;;;;;;0.97;100.00;97469.81;2094879;85;21017;-82
2021/11/30 01:58:34;;;;;;;15.18;10.68;;;;;;;0.95;100.00;97467.05;2094749;85;21464;-82
2021/11/30 02:01:35;;;;;;;12.15;9.98;;;;;;;0.94;100.00;97476.56;2094788;85;20980;-82
2021/11/30 02:04:36;;;;;;;15.65;10.45;;;;;;;0.97;100.00;97476.73;2094973;85;21514;-82
2021/11/30 02:07:37;;;;;;;11.43;9.00;;;;;;;0.96;100.00;97472.06;2094819;85;21000;-82
2021/11/30 02:10:38;;;;;;;15.48;10.75;;;;;;;0.98;100.00;97475.77;2094601;83;21072;-82
2021/11/30 02:13:38;;;;;;;13.20;10.30;;;;;;;0.97;100.00;97478.83;2094753;84;21001;-82
2021/11/30 02:16:39;;;;;;;14.23;10.82;;;;;;;0.93;100.00;97472.84;2094888;84;21076;-82
2021/11/30 02:19:43;;;;;;;13.83;9.90;;;;;;;0.93;100.00;97466.41;2094629;84;21503;-81
2021/11/30 02:22:50;;;;;;;14.68;10.05;;;;;;;0.93;100.00;97461.25;2094832;84;21064;-82
2021/11/30 02:25:45;;;;;;;15.28;10.15;;;;;;;0.90;100.00;97468.77;2093843;85;21612;-82
2021/11/30 02:28:46;;;;;;;15.98;10.98;;;;;;;0.90;100.00;97469.25;2094792;85;21004;-82
2021/11/30 02:31:47;;;;;;;15.70;10.68;;;;;;;0.91;100.00;97472.16;2094768;84;21049;-82
2021/11/30 02:34:48;;;;;;;14.95;10.40;;;;;;;0.87;100.00;97461.35;2094704;84;21567;-82
2021/11/30 02:37:51;;;;;;;16.37;11.15;;;;;;;0.87;100.00;97461.35;2094846;85;20993;-82
2021/11/30 02:40:51;;;;;;;17.10;12.28;;;;;;;0.96;100.00;97473.34;2094893;85;21077;-81
2021/11/30 02:43:52;;;;;;;14.70;11.25;;;;;;;1.02;100.00;97475.82;2094918;85;21048;-81
2021/11/30 02:46:54;;;;;;;15.48;11.50;;;;;;;0.98;100.00;97471.91;2094869;84;21033;-82
2021/11/30 02:49:54;;;;;;;15.60;11.18;;;;;;;0.96;100.00;97473.34;2094773;84;21528;-82
2021/11/30 02:52:56;;;;;;;17.40;11.83;;;;;;;0.96;100.00;97475.12;2096103;84;21008;-82
2021/11/30 02:55:57;;;;;;;15.13;11.40;;;;;;;0.99;100.00;97470.46;2095721;85;21353;-82
2021/11/30 02:58:58;;;;;;;16.93;12.73;;;;;;;0.98;100.00;97479.64;2094732;85;20968;-82
2021/11/30 03:01:59;;;;;;;14.85;11.22;;;;;;;0.98;100.00;97483.50;2095002;85;21004;-81
2021/11/30 03:05:00;;;;;;;19.02;12.15;;;;;;;0.96;100.00;97481.08;2094790;85;21071;-82
2021/11/30 03:08:01;;;;;;;15.35;12.05;;;;;;;0.96;100.00;97486.72;2094816;85;21004;-82
2021/11/30 03:11:02;;;;;;;17.55;12.82;;;;;;;0.94;100.00;97495.08;2094742;82;21087;-81
2021/11/30 03:14:03;;;;;;;16.42;11.73;;;;;;;0.94;100.00;97492.50;2094610;85;21016;-81
2021/11/30 03:17:04;;;;;;;17.92;13.20;;;;;;;0.91;100.00;97492.78;2094749;85;21016;-81
2021/11/30 03:20:04;;;;;;;21.12;12.95;;;;;;;0.93;100.00;97490.41;2094719;85;21507;-81
2021/11/30 03:23:05;;;;;;;15.63;11.08;;;;;;;0.96;100.00;97487.52;2094853;84;21369;-82
2021/11/30 03:26:06;;;;;;;13.83;11.08;;;;;;;1.00;100.00;97481.09;2094834;84;21013;-82
2021/11/30 03:29:07;;;;;;;16.95;12.13;;;;;;;1.00;100.00;97496.56;2094833;85;21013;-83
2021/11/30 03:33:58;;;;;;;17.98;12.45;;;;;;;1.03;100.00;97500.63;2095046;84;21080;-81
2021/11/30 03:35:12;;;;;;;15.72;10.20;;;;;;;1.02;100.00;97499.83;2091213;85;21107;-82
2021/11/30 03:38:12;;;;;;;13.85;10.88;;;;;;;1.03;100.00;97500.16;2094926;85;21056;-82
2021/11/30 03:41:13;;;;;;;14.45;11.15;;;;;;;1.03;100.00;97500.63;2094989;84;21004;-82
2021/11/30 03:44:14;;;;;;;14.40;10.35;;;;;;;1.04;100.00;97504.83;2094976;84;21008;-82
2021/11/30 03:47:15;;;;;;;14.10;10.70;;;;;;;1.03;100.00;97509.66;2095014;84;21004;-82
2021/11/30 03:50:16;;;;;;;16.23;11.33;;;;;;;1.02;100.00;97515.78;2094871;85;20999;-81
2021/11/30 03:53:16;;;;;;;14.35;9.70;;;;;;;1.03;100.00;97516.91;2094903;85;20992;-82
2021/11/30 03:56:17;;;;;;;13.72;9.98;;;;;;;1.00;100.00;97510.74;2094636;85;21108;-83
2021/11/30 03:59:18;;;;;;;13.78;9.83;;;;;;;1.00;100.00;97505.59;2095011;85;21448;-80
2021/11/30 04:02:19;;;;;;;15.48;10.35;;;;;;;1.02;100.00;97509.33;2094911;85;20969;-82
2021/11/30 04:05:20;;;;;;;15.00;9.40;;;;;;;1.02;100.00;97497.25;2095087;84;21508;-81
2021/11/30 04:08:21;;;;;;;12.43;10.25;;;;;;;1.03;100.00;97514.33;2094836;85;21009;-81
2021/11/30 04:11:22;;;;;;;14.05;10.15;;;;;;;1.03;100.00;97520.77;2105828;83;21105;-83
2021/11/30 04:14:22;;;;;;;13.45;10.20;;;;;;;1.04;100.00;97520.30;2125563;84;21082;-83
2021/11/30 04:17:23;;;;;;;12.88;10.53;;;;;;;1.03;100.00;97527.22;2126784;83;20994;-79
2021/11/30 04:20:24;;;;;;;12.90;9.00;;;;;;;1.03;100.00;97538.82;2126290;84;21061;-80
2021/11/30 04:23:26;;;;;;;11.55;9.18;;;;;;;1.07;100.00;97529.02;2126192;83;20950;-81
2021/11/30 04:26:27;;;;;;;12.93;8.75;;;;;;;1.09;100.00;97522.73;2125379;84;21002;-80
2021/11/30 04:29:28;;;;;;;12.88;9.90;;;;;;;1.11;100.00;97527.30;2125433;84;21056;-79
2021/11/30 04:32:29;;;;;;;12.13;8.53;;;;;;;1.10;100.00;97529.55;2125542;84;21017;-80
2021/11/30 04:35:30;;;;;;;13.43;8.63;;;;;;;1.08;100.00;97533.20;2125596;84;21496;-80
2021/11/30 04:38:31;;;;;;;9.93;8.35;;;;;;;1.07;100.00;97534.98;2125512;84;21056;-81
2021/11/30 04:41:32;;;;;;;11.85;9.28;;;;;;;1.02;100.00;97539.78;2125480;84;21061;-81
2021/11/30 04:44:35;;;;;;;10.10;7.87;;;;;;;0.99;100.00;97528.46;2125587;84;21004;-81
2021/11/30 04:47:38;;;;;;;9.35;7.65;;;;;;;0.99;100.00;97538.77;2125602;83;21117;-81
2021/11/30 04:50:42;;;;;;;9.08;8.18;;;;;;;0.97;100.00;97534.73;2125548;83;21085;-81
2021/11/30 04:53:43;;;;;;;10.70;8.10;;;;;;;0.96;100.00;97533.92;2125262;83;21092;-81
2021/11/30 04:56:44;;;;;;;13.08;8.60;;;;;;;0.94;100.00;97537.61;2125376;83;21117;-82
2021/11/30 04:59:45;;;;;;;11.83;8.88;;;;;;;0.92;100.00;97535.19;2125692;84;21025;-82
2021/11/30 05:02:45;;;;;;;8.53;7.47;;;;;;;0.94;100.00;97546.16;2125440;84;21016;-81
2021/11/30 05:05:46;;;;;;;7.67;6.35;;;;;;;0.96;100.00;97539.08;2125524;84;20978;-82
2021/11/30 05:08:47;;;;;;;8.23;7.33;;;;;;;0.95;100.00;97536.65;2125520;84;21322;-82
2021/11/30 05:11:48;;;;;;;11.18;7.72;;;;;;;0.93;100.00;97551.46;2112701;83;21659;-81
2021/11/30 05:14:49;;;;;;;9.83;7.65;;;;;;;0.96;100.00;97544.23;2094785;85;21040;-82
2021/11/30 05:17:50;;;;;;;9.78;7.05;;;;;;;0.99;100.00;97546.50;2094775;85;21020;-82
2021/11/30 05:20:53;;;;;;;7.47;6.08;;;;;;;0.98;100.00;97541.50;2094765;85;20977;-83
2021/11/30 05:23:54;;;;;;;9.10;7.33;;;;;;;0.96;100.00;97539.08;2094547;84;21124;-81
2021/11/30 05:26:56;;;;;;;9.30;7.75;;;;;;;0.94;100.00;97556.94;2094766;85;21037;-82
2021/11/30 05:29:57;;;;;;;9.45;8.05;;;;;;;0.92;100.00;97553.71;2094683;85;21321;-81
2021/11/30 05:32:58;;;;;;;7.45;6.58;;;;;;;0.90;100.00;97553.83;2094764;85;21080;-79
2021/11/30 05:35:59;;;;;;;10.30;7.10;;;;;;;0.90;100.00;97541.42;2096665;85;20937;-81
2021/11/30 05:39:00;;;;;;;7.72;6.87;;;;;;;0.91;100.00;97552.06;2095617;85;21530;-83
2021/11/30 05:42:01;;;;;;;8.48;7.15;;;;;;;0.89;100.00;97552.69;2095018;85;20950;-84
2021/11/30 05:45:01;;;;;;;9.70;6.55;;;;;;;0.88;100.00;97545.92;2094821;85;21072;-86
2021/11/30 05:48:02;;;;;;;7.47;6.78;;;;;;;0.86;100.00;97544.78;2094736;85;21563;-85
2021/11/30 05:51:03;;;;;;;7.17;5.90;;;;;;;0.84;100.00;97544.13;2095066;85;20977;-86
2021/11/30 05:54:04;;;;;;;10.03;6.92;;;;;;;0.83;100.00;97538.64;2095153;85;21008;-82
2021/11/30 05:57:07;;;;;;;7.15;6.47;;;;;;;0.79;100.00;97536.02;2094814;85;21017;-82
2021/11/30 06:00:07;;;;;;;8.93;6.90;;;;;;;0.74;100.00;97537.75;2094667;85;21339;-82
2021/11/30 06:03:27;;;;;;;9.90;7.00;;;;;;;0.72;100.00;97543.98;2094732;85;21544;-82
2021/11/30 06:06:11;;;;;;;7.10;6.42;;;;;;;0.68;100.00;97543.48;2091827;85;21109;-82
2021/11/30 06:09:12;;;;;;;8.05;7.22;;;;;;;0.66;100.00;97546.69;2094830;85;21052;-83
2021/11/30 06:12:12;;;;;;;10.03;7.30;;;;;;;0.63;100.00;97546.95;2094742;82;21001;-83
2021/11/30 06:15:14;;;;;;;8.70;7.37;;;;;;;0.59;100.00;97552.08;2094522;85;21173;-80
2021/11/30 06:18:15;;;;;;;9.00;7.72;;;;;;;0.51;100.00;97548.94;2094533;85;21044;-82
2021/11/30 06:21:16;;;;;;;11.20;6.80;;;;;;;0.48;100.00;97558.25;2094654;85;21595;-82
2021/11/30 06:24:16;;;;;;;10.80;7.90;;;;;;;0.44;100.00;97553.03;2094522;85;20977;-83
2021/11/30 06:27:17;;;;;;;9.83;7.22;;;;;;;0.41;100.00;97555.91;2094680;85;21068;-81
2021/11/30 06:30:18;;;;;;;13.43;7.75;;;;;;;0.38;100.00;97551.53;2094574;85;21056;-83
2021/11/30 06:33:19;;;;;;;11.63;8.35;;;;;;;0.32;100.00;97541.80;2094727;85;21065;-83
2021/11/30 06:36:20;;;;;;;8.70;6.53;;;;;;;0.28;100.00;97551.59;2094671;85;21056;-83
2021/11/30 06:39:21;;;;;;;10.50;7.78;;;;;;;0.24;100.00;97552.33;2094670;85;20973;-86
2021/11/30 06:42:21;;;;;;;6.95;6.28;;;;;;;0.27;100.00;97549.48;2095376;85;20977;-83
2021/11/30 06:45:22;;;;;;;7.08;6.37;;;;;;;0.45;100.00;97544.83;2094707;85;21057;-85
2021/11/30 06:48:23;;;;;;;8.88;6.28;;;;;;;0.59;100.00;97549.98;2094777;85;21036;-86
2021/11/30 06:51:24;;;;;;;8.18;5.75;;;;;;;0.66;100.00;97548.45;2095060;85;21004;-78
2021/11/30 06:54:25;;;;;;;9.85;7.62;;;;;;;0.73;100.00;97549.47;2097418;85;21025;-79
2021/11/30 06:57:26;;;;;;;10.55;7.15;;;;;;;0.80;100.00;97550.52;2097221;85;21012;-78
2021/11/30 07:00:27;;;;;;;8.43;6.20;;;;;;;0.97;100.00;97553.58;2096124;85;20965;-83
2021/11/30 07:03:28;;;;;;;9.33;7.25;;;;;;;1.11;100.00;97550.98;2095338;85;20981;-82
2021/11/30 07:13:14;;;;;;;11.12;7.80;;;;;;;0.96;100.00;97546.00;2007411;88;21581;-85
2021/11/30 07:16:06;;;;;;;9.55;6.40;;;;;;;1.04;100.00;97552.04;2003827;89;21132;-85
2021/11/30 07:19:07;;;;;;;11.53;8.03;;;;;;;1.05;100.00;97552.84;2003510;89;21578;-85
2021/11/30 07:22:07;;;;;;;13.62;8.08;;;;;;;1.07;100.00;97549.64;2003590;89;21069;-85
2021/11/30 07:25:09;;;;;;;14.47;8.43;;;;;;;1.06;100.00;97553.98;2003872;89;21034;-85
2021/11/30 07:28:09;;;;;;;11.05;8.48;;;;;;;1.07;100.00;97543.19;2003433;89;21671;-83
2021/11/30 07:31:11;;;;;;;11.95;8.38;;;;;;;1.03;100.00;97545.75;2003488;89;20990;-85
2021/11/30 07:34:12;;;;;;;12.78;8.40;;;;;;;1.02;100.00;97542.36;2003534;89;21171;-83
2021/11/30 07:37:13;;;;;;;10.85;7.92;;;;;;;0.99;100.00;97537.48;2003441;89;21030;-86
2021/11/30 07:40:14;;;;;;;16.35;9.30;;;;;;;0.99;100.00;97531.03;2003403;89;21076;-85
2021/11/30 07:43:15;;;;;;;10.90;7.15;;;;;;;1.09;100.00;97539.50;2003458;89;21053;-85
2021/11/30 07:46:16;;;;;;;13.80;8.40;;;;;;;1.05;100.00;97538.19;2030415;86;21144;-84
2021/11/30 07:49:19;;;;;;;10.90;6.53;;;;;;;1.02;100.00;97537.69;2110615;84;21072;-78
2021/11/30 07:52:20;;;;;;;9.15;7.10;;;;;;;1.05;100.00;97533.52;2112850;84;21080;-79
2021/11/30 07:55:21;;;;;;;11.63;7.50;;;;;;;1.04;100.00;97531.41;2113045;83;21040;-78
2021/11/30 07:58:22;;;;;;;11.00;7.58;;;;;;;1.13;100.00;97523.27;2112988;84;20988;-81
2021/11/30 08:01:23;;;;;;;11.73;7.37;;;;;;;1.19;100.00;97517.53;2110966;84;21499;-84
2021/11/30 08:04:24;;;;;;;8.78;6.40;;;;;;;1.28;100.00;97508.05;2111137;84;21003;-83
2021/11/30 08:07:25;;;;;;;9.28;6.40;;;;;;;1.33;100.00;97519.55;2110635;84;20960;-85
2021/11/30 08:10:28;;;;;;;10.53;7.90;;;;;;;1.37;100.00;97505.86;2110436;84;21006;-84
2021/11/30 08:13:28;;;;;;;10.50;6.78;;;;;;;1.47;100.00;97516.11;2099049;82;21552;-83
2021/11/30 08:16:29;;;;;;;11.10;8.35;;;;;;;1.51;100.00;97518.23;2097306;85;20976;-79
2021/11/30 08:19:30;;;;;;;7.60;6.70;;;;;;;1.47;100.00;97510.95;2095847;85;21552;-84
2021/11/30 08:22:31;;;;;;;27.32;15.93;;;;;;;1.42;100.00;97503.17;2094824;85;21351;-84
2021/11/30 08:25:33;;;;;;;18.60;9.73;;;;;;;1.43;100.00;97500.11;2094778;84;21508;-84
2021/11/30 08:28:34;;;;;;;15.70;8.58;;;;;;;1.42;100.00;97499.78;2094708;85;21052;-85
2021/11/30 08:31:35;;;;;;;10.25;7.62;;;;;;;1.45;100.00;97494.31;2094927;85;21077;-85
2021/11/30 08:34:36;;;;;;;10.98;7.20;;;;;;;1.49;100.00;97493.06;2094632;85;21035;-84
2021/11/30 08:37:36;;;;;;;10.53;7.45;;;;;;;1.60;100.00;97486.84;2094928;85;20977;-86
2021/11/30 08:40:37;;;;;;;10.30;7.42;;;;;;;1.69;100.00;97482.05;2094666;85;21334;-84
2021/11/30 08:43:38;;;;;;;9.60;6.92;;;;;;;1.77;100.00;97478.22;2094734;85;20984;-85
2021/11/30 08:46:39;;;;;;;9.25;6.55;;;;;;;1.80;100.00;97479.67;2094845;85;21028;-79
2021/11/30 08:49:40;;;;;;;10.18;6.65;;;;;;;1.81;100.00;97470.97;2097182;85;20995;-79
2021/11/30 08:52:41;;;;;;;7.47;6.10;;;;;;;1.85;100.00;97463.26;2096973;85;21021;-80
2021/11/30 08:55:42;;;;;;;12.60;7.12;;;;;;;1.93;100.00;97456.36;2097086;85;20984;-78
2021/11/30 08:58:43;;;;;;;11.18;8.68;;;;;;;2.02;100.00;97445.58;2097227;85;20941;-86
2021/11/30 09:01:44;;;;;;;6.35;5.75;;;;;;;2.11;100.00;97439.48;2095761;85;21004;-83
2021/11/30 09:04:45;;;;;;;7.85;6.05;;;;;;;2.23;100.00;97437.41;2095738;85;20995;-84
2021/11/30 09:07:46;;;;;;;9.43;6.37;;;;;;;2.28;100.00;97431.27;2095741;85;20992;-82
2021/11/30 09:10:47;;;;;;;7.97;7.17;;;;;;;2.31;100.00;97423.70;2095464;85;21020;-85
2021/11/30 09:13:48;;;;;;;9.70;7.80;;;;;;;2.30;100.00;97416.44;2117721;82;21052;-86
2021/11/30 09:16:49;;;;;;;7.33;6.30;;;;;;;2.37;100.00;97406.25;2125814;84;21025;-81
2021/11/30 09:19:50;;;;;;;10.10;7.00;;;;;;;2.43;100.00;97396.58;2125883;84;21056;-85
2021/11/30 09:22:51;;;;;;;9.90;8.10;;;;;;;2.48;100.00;97391.27;2125970;84;20973;-84
2021/11/30 09:25:54;;;;;;;12.07;8.53;;;;;;;2.51;100.00;97383.67;2125814;84;21036;-83
2021/11/30 09:28:54;;;;;;;11.63;8.93;;;;;;;2.59;100.00;97384.17;2125779;84;21125;-83
2021/11/30 09:31:55;;;;;;;10.03;8.08;;;;;;;2.65;100.00;97387.37;2126078;83;21006;-85
2021/11/30 09:34:56;;;;;;;11.40;8.43;;;;;;;2.69;100.00;97379.64;2125657;84;21025;-84
2021/11/30 09:37:58;;;;;;;13.03;8.88;;;;;;;2.74;100.00;97365.73;2125595;84;21143;-83
2021/11/30 09:41:01;;;;;;;9.70;7.42;;;;;;;2.77;100.00;97360.25;2125843;84;21282;-84
2021/11/30 09:44:02;;;;;;;9.08;7.72;;;;;;;2.80;100.00;97348.28;2125744;84;21555;-83
2021/11/30 09:47:02;;;;;;;14.30;8.93;;;;;;;2.74;100.00;97342.01;2125595;84;21041;-83
2021/11/30 09:50:03;;;;;;;9.58;7.28;;;;;;;2.74;100.00;97342.47;2125697;84;20997;-83
2021/11/30 09:53:04;;;;;;;9.53;8.10;;;;;;;2.74;100.00;97335.55;2126710;84;21062;-78
2021/11/30 09:56:05;;;;;;;11.35;8.58;;;;;;;2.77;100.00;97327.94;2127254;84;20978;-80
2021/11/30 09:59:06;;;;;;;9.30;7.62;;;;;;;2.79;100.00;97321.62;2127754;84;21017;-83
2021/11/30 10:02:08;;;;;;;9.00;7.58;;;;;;;2.88;100.00;97317.73;2127129;84;21002;-82
2021/11/30 10:05:08;;;;;;;10.23;7.58;;;;;;;2.91;100.00;97310.94;2126579;84;20985;-84
2021/11/30 10:08:09;;;;;;;10.93;8.95;;;;;;;2.98;100.00;97296.38;2125980;84;21091;-83
2021/11/30 10:11:10;;;;;;;11.97;8.33;;;;;;;3.05;100.00;97289.09;2125628;84;21096;-85
2021/11/30 10:14:22;;;;;;;;;;;;;;;;;;;;;
2021/11/30 10:17:16;;;;;;;10.13;8.25;;;;;;;3.22;100.00;97279.98;2040213;87;21103;-84
2021/11/30 10:20:17;;;;;;;11.12;7.90;;;;;;;3.22;100.00;97265.27;1995580;89;21523;-85
2021/11/30 10:23:18;;;;;;;8.90;8.00;;;;;;;3.22;100.00;97261.39;2040298;87;21080;-82
2021/11/30 10:26:19;;;;;;;10.80;8.80;;;;;;;3.23;100.00;97250.06;1995433;89;21071;-84
2021/11/30 10:29:20;;;;;;;15.90;9.80;;;;;;;3.26;100.00;97237.27;2040082;87;21064;-84
2021/11/30 10:32:21;;;;;;;12.60;10.10;;;;;;;3.28;100.00;97227.55;1995673;89;21138;-85
2021/11/30 10:35:22;;;;;;;26.95;17.67;;;;;;;3.29;100.00;97228.70;2040132;87;21155;-83
2021/11/30 10:38:23;;;;;;;20.08;15.68;;;;;;;3.30;100.00;97226.92;2040381;87;21000;-86
2021/11/30 10:41:24;;;;;;;17.48;12.98;;;;;;;3.30;100.00;97220.45;2040162;87;21048;-84
2021/11/30 10:44:25;;;;;;;14.05;11.03;;;;;;;3.32;100.00;97212.03;2040249;87;21553;-83
2021/11/30 10:47:26;;;;;;;14.40;10.50;;;;;;;3.35;100.00;97198.25;2054508;85;21527;-84
2021/11/30 10:50:28;;;;;;;19.23;12.68;;;;;;;3.32;100.00;97190.84;2083461;84;21013;-84
2021/11/30 10:53:30;;;;;;;17.25;12.13;;;;;;;3.31;100.00;97181.96;2126973;84;21013;-78
2021/11/30 10:56:31;;;;;;;15.20;11.33;;;;;;;3.27;100.00;97166.45;2127862;84;20989;-77
2021/11/30 10:59:32;;;;;;;20.25;13.48;;;;;;;3.23;100.00;97149.18;2127426;84;21068;-84
2021/11/30 11:02:32;;;;;;;16.00;11.93;;;;;;;3.19;100.00;97153.06;2126497;84;20994;-83
2021/11/30 11:05:34;;;;;;;16.15;12.28;;;;;;;3.20;100.00;97140.48;2125816;84;21037;-83
2021/11/30 11:08:35;;;;;;;18.70;13.78;;;;;;;3.20;100.00;97124.95;2125661;84;21042;-83
2021/11/30 11:11:36;;;;;;;20.15;14.87;;;;;;;3.18;100.00;97123.00;2125783;84;21044;-85
2021/11/30 11:14:37;;;;;;;21.97;16.82;;;;;;;3.14;100.00;97112.70;2130721;83;20990;-83
2021/11/30 11:17:38;;;;;;;25.23;16.65;;;;;;;3.08;100.00;97102.55;2132123;83;21020;-85
2021/11/30 11:20:39;;;;;;;27.52;18.98;;;;;;;3.06;100.00;97093.35;2131942;83;20970;-85
2021/11/30 11:23:43;;;;;;;26.40;18.65;;;;;;;3.02;100.00;97082.56;2132432;83;21020;-83
2021/11/30 11:26:44;;;;;;;27.45;19.82;;;;;;;3.02;100.00;97077.39;2132096;83;21067;-85
2021/11/30 11:29:44;;;;;;;27.52;18.15;;;;;;;3.05;100.00;97070.56;2132246;83;21457;-86
2021/11/30 11:32:48;;;;;;;30.70;20.95;;;;;;;3.06;100.00;97059.25;2132555;83;21084;-84
2021/11/30 11:35:48;;;;;;;26.25;18.05;;;;;;;3.07;100.00;97050.50;2132230;83;21073;-87
2021/11/30 11:38:49;;;;;;;31.55;22.45;;;;;;;3.08;100.00;97045.65;2132707;83;21457;-88
2021/11/30 11:41:50;;;;;;;32.10;22.50;;;;;;;3.11;100.00;97031.09;2132109;83;21098;-86
2021/11/30 11:44:52;;;;;;;36.05;23.20;;;;;;;3.16;100.00;97025.88;2132104;83;20962;-83
2021/11/30 11:47:53;;;;;;;30.95;21.30;;;;;;;3.20;100.00;97012.44;2132073;83;21460;-82
2021/11/30 11:50:54;;;;;;;30.95;20.95;;;;;;;3.21;100.00;96994.64;2132049;83;21076;-82
2021/11/30 11:53:56;;;;;;;33.15;22.58;;;;;;;3.23;100.00;96992.69;2132165;83;21047;-82
2021/11/30 11:56:57;;;;;;;24.57;18.20;;;;;;;3.25;100.00;96988.63;2132086;83;21092;-80
2021/11/30 11:59:58;;;;;;;32.73;21.15;;;;;;;3.22;100.00;96976.85;2132357;83;21113;-84
2021/11/30 12:02:59;;;;;;;29.20;19.73;;;;;;;3.23;100.00;96960.34;2132167;83;20988;-81
2021/11/30 12:06:00;;;;;;;27.20;16.85;;;;;;;3.25;100.00;96965.34;2132106;83;21063;-81
2021/11/30 12:09:02;;;;;;;22.02;15.83;;;;;;;3.22;100.00;96943.72;2132226;83;21631;-83
2021/11/30 12:12:03;;;;;;;34.48;20.12;;;;;;;3.19;100.00;96946.64;2132210;83;21581;-83
2021/11/30 12:15:04;;;;;;;61.65;31.62;;;;;;;3.19;100.00;96928.53;2126264;82;21641;-83
2021/11/30 12:18:05;;;;;;;100.60;46.15;;;;;;;3.23;100.00;96930.60;2125589;84;21021;-84
2021/11/30 12:21:07;;;;;;;69.62;32.20;;;;;;;3.25;100.00;96927.84;2125608;84;21071;-83
2021/11/30 12:24:09;;;;;;;73.95;32.75;;;;;;;3.26;100.00;96912.63;2125509;84;21028;-83
2021/11/30 12:27:10;;;;;;;78.50;37.00;;;;;;;3.25;100.00;96912.31;2125528;84;21034;-82
2021/11/30 12:30:11;;;;;;;71.47;32.93;;;;;;;3.21;100.00;96900.73;2125720;84;20951;-82
2021/11/30 12:33:12;;;;;;;53.90;26.52;;;;;;;3.16;100.00;96890.09;2125714;84;21037;-83
2021/11/30 12:36:14;;;;;;;72.53;34.83;;;;;;;3.13;100.00;96881.72;2126028;84;21375;-82
2021/11/30 12:39:16;;;;;;;60.12;31.17;;;;;;;3.06;100.00;96873.55;2125572;84;20958;-82
2021/11/30 12:42:17;;;;;;;63.42;33.15;;;;;;;2.98;100.00;96878.30;2125505;84;21001;-83
2021/11/30 12:45:18;;;;;;;42.10;23.32;;;;;;;2.89;100.00;96861.26;2125465;84;21049;-81
2021/11/30 12:48:19;;;;;;;54.50;26.75;;;;;;;2.82;100.00;96860.34;2125629;84;21074;-84
2021/11/30 12:51:20;;;;;;;81.22;32.75;;;;;;;2.80;100.00;96851.97;2125647;84;21073;-83
2021/11/30 12:54:22;;;;;;;75.92;31.70;;;;;;;2.77;100.00;96827.29;2125718;84;21072;-82
2021/11/30 12:57:23;;;;;;;53.70;23.20;;;;;;;2.71;100.00;96834.45;2125428;84;21044;-83
2021/11/30 13:00:25;;;;;;;72.30;29.18;;;;;;;2.62;100.00;96828.23;2125421;84;21085;-82
2021/11/30 13:03:26;;;;;;;53.68;22.15;;;;;;;2.55;100.00;96824.25;2124856;84;20989;-83
2021/11/30 13:06:27;;;;;;;48.35;20.02;;;;;;;2.52;100.00;96807.81;2079065;84;20912;-83
2021/11/30 13:09:28;;;;;;;54.03;22.07;;;;;;;2.44;100.00;96811.75;2121860;84;20967;-84
2021/11/30 13:12:29;;;;;;;50.75;22.58;;;;;;;2.40;100.00;96809.22;2121739;84;21101;-84
2021/11/30 13:15:30;;;;;;;44.65;21.10;;;;;;;2.35;100.00;96801.97;2096110;83;21051;-83
2021/11/30 13:18:30;;;;;;;42.08;18.87;;;;;;;2.33;100.00;96791.52;2115899;83;21415;-83
2021/11/30 13:21:35;;;;;;;35.70;17.17;;;;;;;2.29;100.00;96772.98;2107164;84;21083;-84
2021/11/30 13:24:36;;;;;;;27.67;14.25;;;;;;;2.25;100.00;96771.22;2101550;84;21048;-88
2021/11/30 13:27:37;;;;;;;22.22;14.43;;;;;;;2.24;100.00;96764.95;2064855;85;21033;-86
2021/11/30 13:30:37;;;;;;;19.27;13.00;;;;;;;2.22;100.00;96755.28;2080464;85;21023;-84
2021/11/30 13:33:38;;;;;;;20.92;12.55;;;;;;;2.20;100.00;96755.95;2077017;85;21036;-86
2021/11/30 13:36:39;;;;;;;20.02;13.50;;;;;;;2.15;100.00;96740.97;2076969;86;21146;-86
2021/11/30 13:39:40;;;;;;;31.95;15.83;;;;;;;2.12;100.00;96730.20;2086235;84;21108;-87
2021/11/30 13:42:41;;;;;;;28.77;13.80;;;;;;;2.04;100.00;96733.65;2110547;84;20984;-92
2021/11/30 13:45:43;;;;;;;39.33;16.93;;;;;;;1.98;100.00;96714.97;2082580;84;21071;-88
2021/11/30 13:48:44;;;;;;;36.38;18.05;;;;;;;1.93;100.00;96712.12;2109903;84;21034;-86
2021/11/30 13:51:48;;;;;;;36.83;17.87;;;;;;;1.85;100.00;96701.37;2110145;84;21087;-86
2021/11/30 13:54:52;;;;;;;37.75;17.48;;;;;;;1.81;100.00;96707.84;2109885;84;21495;-86
2021/11/30 13:57:51;;;;;;;34.73;15.55;;;;;;;1.76;100.00;96698.55;2109973;84;21011;-87
2021/11/30 14:00:59;;;;;;;29.72;15.48;;;;;;;1.72;100.00;96683.08;2091573;85;21563;-87
2021/11/30 14:04:00;;;;;;;32.50;17.37;;;;;;;1.69;100.00;96668.75;2083013;84;21014;-85
2021/11/30 14:07:02;;;;;;;26.62;14.63;;;;;;;1.69;100.00;96657.14;2109782;84;22061;-86
2021/11/30 14:10:03;;;;;;;22.37;12.33;;;;;;;1.68;100.00;96654.73;2089614;85;21082;-85